createdAt,value
2023-01-29T00:03:26.557Z,0.70
2023-01-29T00:07:02.753Z,0.90
2023-01-29T00:13:10.640Z,0.90
2023-01-29T00:16:09.151Z,0.90
2023-01-29T00:19:21.540Z,1.00
2023-01-29T00:22:26.892Z,0.90
2023-01-29T00:28:21.008Z,1.20
2023-01-29T00:31:13.537Z,1.20
2023-01-29T00:34:07.041Z,1.10
2023-01-29T00:37:09.128Z,1.40
2023-01-29T00:40:01.876Z,1.30
2023-01-29T00:43:59.996Z,1.50
2023-01-29T00:46:56.807Z,1.60
2023-01-29T00:49:50.903Z,1.10
2023-01-29T00:52:47.446Z,1.10
2023-01-29T01:05:32.596Z,1.10
2023-01-29T01:08:44.610Z,0.80
2023-01-29T01:11:57.590Z,0.80
2023-01-29T01:14:46.636Z,0.90
2023-01-29T01:17:35.120Z,1.00
2023-01-29T01:20:32.382Z,1.10
2023-01-29T01:23:24.356Z,1.30
2023-01-29T01:26:18.134Z,1.40
2023-01-29T01:29:23.821Z,1.40
2023-01-29T01:32:32.122Z,1.30
2023-01-29T01:35:27.105Z,1.10
2023-01-29T01:42:57.568Z,0.40
2023-01-29T01:46:02.050Z,0.50
2023-01-29T01:57:25.425Z,0.30
2023-01-29T02:03:57.794Z,0.50
2023-01-29T02:07:17.589Z,0.60
2023-01-29T02:10:19.006Z,0.70
2023-01-29T02:16:25.595Z,0.50
2023-01-29T02:19:50.933Z,0.20
2023-01-29T02:23:32.220Z,0.40
2023-01-29T02:31:31.071Z,0.60
2023-01-29T02:35:19.056Z,0.30
2023-01-29T02:38:45.260Z,0.00
2023-01-29T02:42:35.811Z,0.20
2023-01-29T02:46:14.743Z,0.10
2023-01-29T02:49:37.344Z,0.20
2023-01-29T02:52:36.878Z,0.50
2023-01-29T02:55:34.421Z,0.80
2023-01-29T03:02:34.911Z,0.90
2023-01-29T03:09:40.319Z,0.60
2023-01-29T03:13:04.219Z,0.60
2023-01-29T03:19:33.386Z,0.70
2023-01-29T03:27:02.187Z,0.80
2023-01-29T03:41:02.649Z,-0.30
2023-01-29T03:51:31.334Z,-0.90
2023-01-29T03:54:54.979Z,-0.90
2023-01-29T03:57:51.502Z,-0.90
2023-01-29T04:01:06.845Z,-0.90
2023-01-29T04:04:24.253Z,-0.90
2023-01-29T04:07:46.403Z,-1.00
2023-01-29T04:14:29.418Z,-1.10
2023-01-29T04:17:55.677Z,-1.10
2023-01-29T04:21:02.285Z,-1.10
2023-01-29T04:27:36.824Z,-1.20
2023-01-29T04:34:47.464Z,-1.30
2023-01-29T04:38:41.448Z,-1.40
2023-01-29T04:41:54.304Z,-1.40
2023-01-29T04:45:04.504Z,-1.40
2023-01-29T04:48:30.295Z,-1.40
2023-01-29T04:51:54.122Z,-1.40
2023-01-29T04:54:53.466Z,-1.40
2023-01-29T05:02:05.690Z,-1.50
2023-01-29T05:05:14.176Z,-1.40
2023-01-29T05:08:21.145Z,-1.30
2023-01-29T05:11:28.654Z,-1.50
2023-01-29T05:14:28.175Z,-1.60
2023-01-29T05:17:20.343Z,-1.80
2023-01-29T05:20:18.351Z,-1.80
2023-01-29T05:23:21.217Z,-1.80
2023-01-29T05:26:09.412Z,-1.80
2023-01-29T05:28:59.780Z,-1.90
2023-01-29T05:31:48.021Z,-1.80
2023-01-29T05:34:47.137Z,-1.70
2023-01-29T05:37:35.483Z,-1.70
2023-01-29T05:40:29.137Z,-1.70
2023-01-29T05:43:29.914Z,-1.70
2023-01-29T05:46:23.613Z,-1.70
2023-01-29T05:49:21.300Z,-1.70
2023-01-29T05:52:13.514Z,-1.70
2023-01-29T05:55:07.215Z,-1.70
2023-01-29T05:58:05.960Z,-1.70
2023-01-29T06:00:59.025Z,-1.60
2023-01-29T06:03:54.216Z,-1.50
2023-01-29T06:06:42.416Z,-1.50
2023-01-29T06:09:40.656Z,-1.60
2023-01-29T06:12:31.345Z,-1.50
2023-01-29T06:15:22.083Z,-1.50
2023-01-29T06:18:29.502Z,-1.50
2023-01-29T06:21:35.003Z,-1.40
2023-01-29T06:24:30.598Z,-1.30
2023-01-29T06:27:18.269Z,-1.30
2023-01-29T06:30:12.572Z,-1.30
2023-01-29T06:33:04.739Z,-1.10
2023-01-29T06:36:00.150Z,-0.90
2023-01-29T06:38:52.712Z,-0.80
2023-01-29T06:41:46.912Z,-0.80
2023-01-29T06:44:36.665Z,-0.70
2023-01-29T06:47:28.794Z,-0.70
2023-01-29T06:50:17.220Z,-0.70
2023-01-29T06:53:05.275Z,-1.10
2023-01-29T06:55:56.009Z,-1.10
2023-01-29T06:58:43.764Z,-0.90
2023-01-29T07:01:41.542Z,-0.70
2023-01-29T07:04:29.153Z,-0.50
2023-01-29T07:07:17.010Z,-0.40
2023-01-29T07:10:05.098Z,-0.40
2023-01-29T07:12:52.917Z,-0.60
2023-01-29T07:15:40.331Z,-0.50
2023-01-29T07:18:29.425Z,-0.80
2023-01-29T07:21:17.115Z,-0.90
2023-01-29T07:24:05.169Z,-1.20
2023-01-29T07:26:53.741Z,-1.40
2023-01-29T07:29:41.216Z,-1.60
2023-01-29T07:32:29.034Z,-1.80
2023-01-29T07:35:16.710Z,-1.80
2023-01-29T07:38:04.696Z,-1.80
2023-01-29T07:40:53.170Z,-1.70
2023-01-29T07:43:41.268Z,-1.70
2023-01-29T07:46:28.745Z,-1.60
2023-01-29T07:49:16.787Z,-1.50
2023-01-29T07:52:04.331Z,-1.40
2023-01-29T07:54:52.014Z,-1.50
2023-01-29T07:57:39.602Z,-1.60
2023-01-29T08:00:28.016Z,-1.60
2023-01-29T08:03:20.753Z,-1.60
2023-01-29T08:06:08.240Z,-1.10
2023-01-29T08:08:57.369Z,-1.10
2023-01-29T08:11:45.504Z,-0.90
2023-01-29T08:14:33.075Z,-0.50
2023-01-29T08:17:23.608Z,-0.30
2023-01-29T08:20:12.331Z,-0.30
2023-01-29T08:23:01.609Z,0.00
2023-01-29T08:25:49.113Z,0.20
2023-01-29T08:28:38.728Z,0.10
2023-01-29T08:31:26.712Z,-0.10
2023-01-29T08:34:14.910Z,-0.10
2023-01-29T08:37:02.744Z,0.20
2023-01-29T08:39:50.551Z,0.30
2023-01-29T08:42:38.227Z,0.20
2023-01-29T08:45:25.695Z,0.20
2023-01-29T08:48:13.680Z,-0.10
2023-01-29T08:51:02.625Z,-0.10
2023-01-29T08:53:50.735Z,0.20
2023-01-29T08:56:39.654Z,0.40
2023-01-29T08:59:31.144Z,0.90
2023-01-29T09:02:18.862Z,0.90
2023-01-29T09:05:07.139Z,0.70
2023-01-29T09:07:58.193Z,0.70
2023-01-29T09:10:45.724Z,1.20
2023-01-29T09:16:35.361Z,1.30
2023-01-29T09:19:26.001Z,1.50
2023-01-29T09:22:18.150Z,1.60
2023-01-29T09:25:06.668Z,1.60
2023-01-29T09:27:54.779Z,1.30
2023-01-29T09:30:42.381Z,0.90
2023-01-29T09:33:31.084Z,1.20
2023-01-29T09:36:18.722Z,1.80
2023-01-29T09:39:06.274Z,2.10
2023-01-29T09:41:58.762Z,2.20
2023-01-29T09:44:58.203Z,1.70
2023-01-29T09:47:45.799Z,1.50
2023-01-29T09:50:40.156Z,0.90
2023-01-29T09:53:40.933Z,0.80
2023-01-29T09:56:29.202Z,0.90
2023-01-29T09:59:21.570Z,1.50
2023-01-29T10:02:40.310Z,1.90
2023-01-29T10:05:39.400Z,2.80
2023-01-29T10:08:48.688Z,3.30
2023-01-29T10:11:52.877Z,4.00
2023-01-29T10:15:06.302Z,2.00
2023-01-29T10:18:09.921Z,1.20
2023-01-29T10:21:09.171Z,0.50
2023-01-29T10:24:12.985Z,0.80
2023-01-29T10:27:06.107Z,0.50
2023-01-29T10:29:58.269Z,0.40
2023-01-29T10:32:47.531Z,0.40
2023-01-29T10:35:46.928Z,0.10
2023-01-29T10:38:37.731Z,0.20
2023-01-29T10:41:51.714Z,0.70
2023-01-29T10:45:03.027Z,1.30
2023-01-29T10:48:19.535Z,1.90
2023-01-29T10:51:19.421Z,3.40
2023-01-29T10:54:18.865Z,2.30
2023-01-29T10:57:39.085Z,0.70
2023-01-29T11:00:43.424Z,1.00
2023-01-29T11:03:33.534Z,1.40
2023-01-29T11:06:34.104Z,1.60
2023-01-29T11:09:40.476Z,1.80
2023-01-29T11:12:33.349Z,1.70
2023-01-29T11:15:28.160Z,1.10
2023-01-29T11:18:16.055Z,0.60
2023-01-29T11:21:04.986Z,0.40
2023-01-29T11:24:23.906Z,0.60
2023-01-29T11:27:26.557Z,1.00
2023-01-29T11:30:25.718Z,1.50
2023-01-29T11:33:20.950Z,1.70
2023-01-29T11:36:37.119Z,2.60
2023-01-29T11:39:25.810Z,3.10
2023-01-29T11:42:21.897Z,3.40
2023-01-29T11:45:25.316Z,2.30
2023-01-29T11:48:19.320Z,2.40
2023-01-29T11:51:07.727Z,2.60
2023-01-29T11:54:03.276Z,3.10
2023-01-29T11:56:51.807Z,1.50
2023-01-29T11:59:50.283Z,1.80
2023-01-29T12:02:45.843Z,3.60
2023-01-29T12:05:33.898Z,3.20
2023-01-29T12:08:23.724Z,2.40
2023-01-29T12:11:33.556Z,1.50
2023-01-29T12:14:34.139Z,1.40
2023-01-29T12:17:26.785Z,1.60
2023-01-29T12:20:28.314Z,2.10
2023-01-29T12:23:33.570Z,1.90
2023-01-29T12:26:46.506Z,1.90
2023-01-29T12:29:48.431Z,1.70
2023-01-29T12:33:25.437Z,1.50
2023-01-29T12:36:53.568Z,2.10
2023-01-29T12:39:41.222Z,2.00
2023-01-29T12:42:29.319Z,2.00
2023-01-29T12:45:22.444Z,2.00
2023-01-29T12:48:14.563Z,1.80
2023-01-29T12:51:12.047Z,1.70
2023-01-29T12:54:10.276Z,2.20
2023-01-29T12:57:02.438Z,1.50
2023-01-29T12:59:58.635Z,1.10
2023-01-29T13:02:49.029Z,0.80
2023-01-29T13:05:44.614Z,1.30
2023-01-29T13:08:54.841Z,1.50
2023-01-29T13:12:04.075Z,1.40
2023-01-29T13:14:59.359Z,1.20
2023-01-29T13:17:54.734Z,1.30
2023-01-29T13:20:44.832Z,1.60
2023-01-29T13:23:39.643Z,1.50
2023-01-29T13:26:28.610Z,1.60
2023-01-29T13:29:28.475Z,2.10
2023-01-29T13:32:27.485Z,2.40
2023-01-29T13:35:16.013Z,2.20
2023-01-29T13:38:05.808Z,2.20
2023-01-29T13:41:05.897Z,2.60
2023-01-29T13:44:02.152Z,2.60
2023-01-29T13:46:54.890Z,2.80
2023-01-29T13:49:54.910Z,2.30
2023-01-29T13:53:11.042Z,2.40
2023-01-29T13:56:33.777Z,2.10
2023-01-29T13:59:39.347Z,2.40
2023-01-29T14:02:43.105Z,2.80
2023-01-29T14:05:36.048Z,2.50
2023-01-29T14:08:48.389Z,2.30
2023-01-29T14:11:36.837Z,2.10
2023-01-29T14:14:49.669Z,2.30
2023-01-29T14:18:04.069Z,2.80
2023-01-29T14:21:11.455Z,2.40
2023-01-29T14:24:11.059Z,2.90
2023-01-29T14:27:09.629Z,2.50
2023-01-29T14:30:11.888Z,2.40
2023-01-29T14:33:15.392Z,2.50
2023-01-29T14:36:13.512Z,3.00
2023-01-29T14:39:01.805Z,3.10
2023-01-29T14:41:54.942Z,2.30
2023-01-29T14:44:53.484Z,2.50
2023-01-29T14:47:41.493Z,2.20
2023-01-29T14:50:39.633Z,2.30
2023-01-29T14:53:45.826Z,2.10
2023-01-29T14:56:37.439Z,1.70
2023-01-29T14:59:58.023Z,1.70
2023-01-29T15:02:46.868Z,1.80
2023-01-29T15:05:37.890Z,1.50
2023-01-29T15:08:39.505Z,1.40
2023-01-29T15:11:50.447Z,1.80
2023-01-29T15:15:03.074Z,2.00
2023-01-29T15:18:08.233Z,1.90
2023-01-29T15:21:05.818Z,1.90
2023-01-29T15:24:05.435Z,1.50
2023-01-29T15:26:57.401Z,0.90
2023-01-29T15:29:55.405Z,0.60
2023-01-29T15:32:49.692Z,0.50
2023-01-29T15:35:40.057Z,0.60
2023-01-29T15:38:31.157Z,0.60
2023-01-29T15:41:26.729Z,0.70
2023-01-29T15:44:16.976Z,0.50
2023-01-29T15:47:06.134Z,0.50
2023-01-29T15:49:55.633Z,0.50
2023-01-29T15:52:43.306Z,0.40
2023-01-29T15:55:31.962Z,0.30
2023-01-29T15:58:25.111Z,0.30
2023-01-29T16:01:14.515Z,0.20
2023-01-29T16:04:03.936Z,0.20
2023-01-29T16:06:54.761Z,0.20
2023-01-29T16:09:43.652Z,0.20
2023-01-29T16:12:34.294Z,0.20
2023-01-29T16:15:30.778Z,0.10
2023-01-29T16:18:27.137Z,0.10
2023-01-29T16:21:23.674Z,0.10
2023-01-29T16:24:22.462Z,0.00
2023-01-29T16:27:15.008Z,-0.10
2023-01-29T16:30:04.293Z,-0.10
2023-01-29T16:33:10.326Z,-0.10
2023-01-29T16:54:44.729Z,0.20
2023-01-29T16:58:24.906Z,0.20
2023-01-29T17:04:49.938Z,0.40
2023-01-29T17:08:26.453Z,0.20
2023-01-29T17:12:17.180Z,0.20
2023-01-29T17:22:48.886Z,-0.20
2023-01-29T17:34:53.123Z,-0.10
2023-01-29T18:16:44.601Z,-0.70
2023-01-29T18:19:44.150Z,-0.70
2023-01-29T18:34:31.355Z,-0.70
2023-01-29T18:47:11.050Z,-0.90
2023-01-29T18:53:38.426Z,-0.90
2023-01-29T18:57:09.321Z,-0.90
2023-01-29T19:00:05.174Z,-1.00
2023-01-29T19:03:05.326Z,-1.00
2023-01-29T19:06:01.920Z,-1.00
2023-01-29T19:08:58.009Z,-1.10
2023-01-29T19:11:57.694Z,-1.20
2023-01-29T19:14:57.687Z,-1.20
2023-01-29T19:17:45.942Z,-1.20
2023-01-29T19:23:41.309Z,-1.20
2023-01-29T19:26:37.193Z,-1.30
2023-01-29T19:29:49.311Z,-1.30
2023-01-29T19:33:01.851Z,-1.40
2023-01-29T19:45:50.087Z,-1.40
2023-01-29T20:00:00.328Z,-1.20
2023-01-29T20:03:12.223Z,-1.20
2023-01-29T20:06:06.296Z,-1.20
2023-01-29T20:13:18.122Z,-1.20
2023-01-29T20:16:45.321Z,-1.30
2023-01-29T20:19:38.404Z,-1.30
2023-01-29T20:22:42.402Z,-1.40
2023-01-29T20:25:33.566Z,-1.30
2023-01-29T20:32:36.676Z,-1.30
2023-01-29T20:40:11.709Z,-1.20
2023-01-29T20:43:21.509Z,-1.10
2023-01-29T20:46:23.281Z,-1.10
2023-01-29T20:49:35.144Z,-1.10
2023-01-29T20:52:25.396Z,-1.10
2023-01-29T20:55:18.491Z,-1.10
2023-01-29T20:58:08.794Z,-1.10
2023-01-29T21:00:59.949Z,-1.00
2023-01-29T21:03:48.328Z,-1.00
2023-01-29T21:07:44.353Z,-1.00
2023-01-29T21:10:43.407Z,-0.90
2023-01-29T21:14:08.239Z,-0.90
2023-01-29T21:17:03.872Z,-0.90
2023-01-29T21:20:27.260Z,-0.80
2023-01-29T21:23:44.391Z,-0.80
2023-01-29T21:27:00.523Z,-0.80
2023-01-29T21:29:56.000Z,-0.70
2023-01-29T21:36:23.495Z,-0.60
2023-01-29T21:40:05.622Z,-0.60
2023-01-29T21:43:48.776Z,-0.60
2023-01-29T21:46:39.124Z,-0.60
2023-01-29T21:49:49.503Z,-0.60
2023-01-29T21:52:50.125Z,-0.60
2023-01-29T21:55:48.115Z,-0.50
2023-01-29T21:58:51.981Z,-0.50
2023-01-29T22:05:52.223Z,-0.50
2023-01-29T22:08:53.397Z,-0.50
2023-01-29T22:12:03.266Z,-0.40
2023-01-29T22:14:58.624Z,-0.50
2023-01-29T22:17:57.168Z,-0.50
2023-01-29T22:21:05.631Z,-0.50
2023-01-29T22:24:01.484Z,-0.40
2023-01-29T22:31:23.805Z,-0.50
2023-01-29T22:34:18.873Z,-0.50
2023-01-29T22:37:28.551Z,-0.50
2023-01-29T22:40:19.550Z,-0.40
2023-01-29T22:46:23.074Z,-0.40
2023-01-29T22:49:25.495Z,-0.40
2023-01-29T22:56:18.651Z,-0.40
2023-01-29T22:59:07.134Z,-0.40
2023-01-29T23:02:25.730Z,-0.50
2023-01-29T23:05:16.916Z,-0.40
2023-01-29T23:08:08.008Z,-0.50
2023-01-29T23:11:18.043Z,-0.40
2023-01-29T23:18:04.223Z,-0.40
2023-01-29T23:20:58.032Z,-0.30
2023-01-29T23:23:59.680Z,-0.30
2023-01-29T23:27:22.667Z,-0.30
2023-01-29T23:30:25.995Z,-0.30
2023-01-29T23:33:24.554Z,-0.30
2023-01-29T23:36:18.935Z,-0.30
2023-01-29T23:39:22.490Z,-0.20
2023-01-29T23:42:28.519Z,-0.20
2023-01-29T23:45:21.999Z,-0.20
2023-01-29T23:48:25.226Z,-0.20
2023-01-29T23:51:18.766Z,-0.20
2023-01-29T23:54:23.527Z,-0.20
2023-01-29T23:57:24.191Z,-0.20
